Time;durP1;ratioP1;P1;durP2;ratioP2;P2;SDS_P1;SDS_P2;PMS_P1;PMS_P2;Temp;Humidity;BMP_temperature;BMP_pressure;BME280_temperature;BME280_humidity;BME280_pressure;Samples;Min_cycle;Max_cycle;Signal;HPM_P1;HPM_P2
2021/07/18 00:04:17;;;;;;;3.20;1.88;;;;;;;;;;10537147;28;20052;-82
2021/07/18 00:09:18;;;;;;;4.30;2.33;;;;;;;;;;10555014;28;20060;-83
2021/07/18 00:14:19;;;;;;;3.22;2.10;;;;;;;;;;10536202;28;20405;-83
2021/07/18 00:19:20;;;;;;;3.58;1.90;;;;;;;;;;10555025;28;20036;-83
2021/07/18 00:24:21;;;;;;;2.95;2.30;;;;;;;;;;10535514;28;20085;-83
2021/07/18 00:29:22;;;;;;;3.33;2.10;;;;;;;;;;10535407;28;20032;-83
2021/07/18 00:34:23;;;;;;;3.85;2.20;;;;;;;;;;10536933;28;20036;-83
2021/07/18 00:39:24;;;;;;;2.90;1.40;;;;;;;;;;10535040;28;20452;-83
2021/07/18 00:44:25;;;;;;;2.13;1.80;;;;;;;;;;10535167;28;20028;-83
2021/07/18 00:49:26;;;;;;;3.08;2.00;;;;;;;;;;10540422;28;20043;-83
2021/07/18 00:54:27;;;;;;;4.25;1.80;;;;;;;;;;10534978;28;20441;-83
2021/07/18 00:59:28;;;;;;;2.25;1.90;;;;;;;;;;10534841;28;20040;-83
2021/07/18 01:04:29;;;;;;;2.60;1.67;;;;;;;;;;10534219;28;20082;-83
2021/07/18 01:09:30;;;;;;;2.60;1.98;;;;;;;;;;10534687;28;20505;-83
2021/07/18 01:14:31;;;;;;;1.92;1.60;;;;;;;;;;10535957;28;20040;-82
2021/07/18 01:19:34;;;;;;;2.63;1.67;;;;;;;;;;10534653;28;20031;-82
2021/07/18 01:24:35;;;;;;;2.33;1.77;;;;;;;;;;10553310;28;20063;-82
2021/07/18 01:29:36;;;;;;;3.10;2.00;;;;;;;;;;10534131;28;20050;-82
2021/07/18 01:34:37;;;;;;;2.85;1.90;;;;;;;;;;10533507;28;20047;-83
2021/07/18 01:39:38;;;;;;;2.38;1.60;;;;;;;;;;10551217;28;20046;-83
2021/07/18 01:44:39;;;;;;;3.08;2.00;;;;;;;;;;10532171;28;20074;-83
2021/07/18 01:49:40;;;;;;;2.90;1.85;;;;;;;;;;10533727;28;20036;-83
2021/07/18 01:54:41;;;;;;;3.35;2.22;;;;;;;;;;10551895;28;20043;-83
2021/07/18 01:59:43;;;;;;;2.88;1.70;;;;;;;;;;10551388;28;20035;-83
2021/07/18 02:04:46;;;;;;;2.30;1.80;;;;;;;;;;10531608;28;20016;-83
2021/07/18 02:09:47;;;;;;;2.80;2.22;;;;;;;;;;10530250;28;20032;-83
2021/07/18 02:14:49;;;;;;;2.92;1.80;;;;;;;;;;10542332;28;20032;-83
2021/07/18 02:19:49;;;;;;;3.28;1.70;;;;;;;;;;10538460;28;20032;-83
2021/07/18 02:24:50;;;;;;;2.78;1.77;;;;;;;;;;10529401;28;20036;-83
2021/07/18 02:29:51;;;;;;;2.78;1.92;;;;;;;;;;10541082;28;20039;-83
2021/07/18 02:34:52;;;;;;;3.03;2.13;;;;;;;;;;10536238;28;20099;-83
2021/07/18 02:39:53;;;;;;;3.72;2.03;;;;;;;;;;10547433;28;20036;-82
2021/07/18 02:44:55;;;;;;;3.03;2.08;;;;;;;;;;10529289;28;20525;-83
2021/07/18 02:49:55;;;;;;;3.25;2.00;;;;;;;;;;10546720;28;20111;-83
2021/07/18 02:54:56;;;;;;;2.28;1.60;;;;;;;;;;10528525;28;20072;-83
2021/07/18 02:59:58;;;;;;;2.40;1.83;;;;;;;;;;10530080;28;20032;-83
2021/07/18 03:04:59;;;;;;;2.72;1.70;;;;;;;;;;10531202;28;20032;-83
2021/07/18 03:10:00;;;;;;;3.38;1.80;;;;;;;;;;10527825;28;20126;-83
2021/07/18 03:15:02;;;;;;;2.58;1.70;;;;;;;;;;10535727;28;20055;-83
2021/07/18 03:20:07;;;;;;;4.57;2.35;;;;;;;;;;10534924;28;20515;-83
2021/07/18 03:25:09;;;;;;;3.13;1.80;;;;;;;;;;10534655;28;20036;-85
2021/07/18 03:30:11;;;;;;;2.95;2.25;;;;;;;;;;10536716;28;20032;-83
2021/07/18 03:35:13;;;;;;;3.70;2.25;;;;;;;;;;10538212;28;20036;-83
2021/07/18 03:40:15;;;;;;;2.53;1.83;;;;;;;;;;10539819;28;20343;-83
2021/07/18 03:45:16;;;;;;;2.42;1.70;;;;;;;;;;10534003;28;20028;-83
2021/07/18 03:50:18;;;;;;;1.90;1.63;;;;;;;;;;10551691;28;20054;-83
2021/07/18 03:55:42;;;;;;;2.10;1.67;;;;;;;;;;10554030;28;20052;-83
2021/07/18 04:00:43;;;;;;;3.17;1.70;;;;;;;;;;10550074;28;20093;-83
2021/07/18 04:05:44;;;;;;;2.97;2.60;;;;;;;;;;10532419;28;20066;-83
2021/07/18 04:10:46;;;;;;;2.88;2.00;;;;;;;;;;10531337;28;20028;-82
2021/07/18 04:15:47;;;;;;;3.10;2.45;;;;;;;;;;10531064;28;20486;-82
2021/07/18 04:20:48;;;;;;;3.78;2.90;;;;;;;;;;10531524;28;20098;-82
2021/07/18 04:25:49;;;;;;;3.38;2.20;;;;;;;;;;10531803;28;20391;-82
2021/07/18 04:30:50;;;;;;;4.22;2.47;;;;;;;;;;10532809;28;20032;-81
2021/07/18 04:35:51;;;;;;;4.35;2.88;;;;;;;;;;10531308;28;20042;-82
2021/07/18 04:40:52;;;;;;;4.63;3.60;;;;;;;;;;10532079;28;20028;-82
2021/07/18 04:45:53;;;;;;;7.78;4.90;;;;;;;;;;10548244;28;20124;-82
2021/07/18 04:50:54;;;;;;;9.13;6.35;;;;;;;;;;10528975;28;20141;-82
2021/07/18 04:55:55;;;;;;;6.78;5.10;;;;;;;;;;10529345;28;20423;-82
2021/07/18 05:00:56;;;;;;;6.25;4.10;;;;;;;;;;10530008;28;20127;-82
2021/07/18 05:05:57;;;;;;;6.53;4.18;;;;;;;;;;10561355;28;20016;-81
2021/07/18 05:10:58;;;;;;;5.75;3.20;;;;;;;;;;10569819;28;20024;-81
2021/07/18 05:16:00;;;;;;;3.55;2.70;;;;;;;;;;10568495;28;20032;-83
2021/07/18 05:21:02;;;;;;;2.97;2.50;;;;;;;;;;10535108;28;20159;-82
2021/07/18 05:26:03;;;;;;;6.45;5.25;;;;;;;;;;10530179;28;20119;-83
2021/07/18 05:31:04;;;;;;;4.22;3.30;;;;;;;;;;10547899;28;20067;-81
2021/07/18 05:36:05;;;;;;;4.30;3.03;;;;;;;;;;10530014;28;20059;-83
2021/07/18 05:41:06;;;;;;;4.22;3.42;;;;;;;;;;10529169;28;20040;-81
2021/07/18 05:46:07;;;;;;;4.68;3.40;;;;;;;;;;10546471;28;20028;-83
2021/07/18 05:51:08;;;;;;;4.15;3.05;;;;;;;;;;10511949;28;20106;-82
2021/07/18 05:56:09;;;;;;;7.10;5.13;;;;;;;;;;10528447;28;20064;-82
2021/07/18 06:01:11;;;;;;;5.30;3.83;;;;;;;;;;10529330;28;20405;-83
2021/07/18 06:06:12;;;;;;;7.13;5.47;;;;;;;;;;10528278;28;20036;-82
2021/07/18 06:11:13;;;;;;;4.88;3.70;;;;;;;;;;10527549;28;20085;-82
2021/07/18 06:16:14;;;;;;;4.03;2.80;;;;;;;;;;10527987;28;20032;-82
2021/07/18 06:21:15;;;;;;;5.70;3.63;;;;;;;;;;10531491;28;20036;-83
2021/07/18 06:26:16;;;;;;;4.25;3.33;;;;;;;;;;10529537;28;20032;-82
2021/07/18 06:31:18;;;;;;;2.90;2.60;;;;;;;;;;10526313;28;20036;-83
2021/07/18 06:36:19;;;;;;;4.68;3.00;;;;;;;;;;10526333;28;20040;-83
2021/07/18 06:41:20;;;;;;;3.60;2.20;;;;;;;;;;10525513;28;20032;-82
2021/07/18 06:46:22;;;;;;;3.90;2.00;;;;;;;;;;10549957;28;20098;-82
2021/07/18 06:51:23;;;;;;;3.20;2.03;;;;;;;;;;10536161;28;20046;-83
2021/07/18 06:56:25;;;;;;;3.80;2.00;;;;;;;;;;10519327;28;20434;-83
2021/07/18 07:01:26;;;;;;;3.70;2.03;;;;;;;;;;10535616;28;20024;-82
2021/07/18 07:06:27;;;;;;;2.50;1.70;;;;;;;;;;10535553;28;20095;-82
2021/07/18 07:11:28;;;;;;;4.03;1.70;;;;;;;;;;10537021;28;20032;-84
2021/07/18 07:16:29;;;;;;;3.67;2.05;;;;;;;;;;10536012;28;20043;-83
2021/07/18 07:21:33;;;;;;;3.78;2.03;;;;;;;;;;10553901;28;20400;-83
2021/07/18 07:26:34;;;;;;;3.60;2.33;;;;;;;;;;10535441;28;20024;-83
2021/07/18 07:31:36;;;;;;;5.18;2.13;;;;;;;;;;10534474;28;20115;-82
2021/07/18 07:36:37;;;;;;;2.83;1.77;;;;;;;;;;10535059;28;20031;-83
2021/07/18 07:41:37;;;;;;;2.45;1.80;;;;;;;;;;10533912;28;20051;-83
2021/07/18 07:46:38;;;;;;;2.08;1.40;;;;;;;;;;10533965;28;20394;-83
2021/07/18 07:51:39;;;;;;;2.05;1.67;;;;;;;;;;10533503;28;20433;-83
2021/07/18 07:56:40;;;;;;;4.25;2.47;;;;;;;;;;10531562;28;20055;-83
2021/07/18 08:01:44;;;;;;;3.53;2.00;;;;;;;;;;10550772;28;20055;-82
2021/07/18 08:06:45;;;;;;;3.17;1.98;;;;;;;;;;10570078;28;20032;-82
2021/07/18 08:11:48;;;;;;;2.78;1.80;;;;;;;;;;10571638;28;20028;-84
2021/07/18 08:16:50;;;;;;;5.43;2.10;;;;;;;;;;10571207;28;20020;-83
2021/07/18 08:21:51;;;;;;;5.80;2.00;;;;;;;;;;10541915;28;20036;-82
2021/07/18 08:26:54;;;;;;;3.85;1.90;;;;;;;;;;10541176;28;20034;-82
2021/07/18 08:31:58;;;;;;;4.50;2.35;;;;;;;;;;10559179;28;20517;-82
2021/07/18 08:36:59;;;;;;;4.50;2.78;;;;;;;;;;10540935;28;20051;-83
2021/07/18 08:42:01;;;;;;;3.92;2.35;;;;;;;;;;10539917;28;20063;-82
2021/07/18 08:47:02;;;;;;;3.47;2.40;;;;;;;;;;10540394;28;20083;-82
2021/07/18 08:52:03;;;;;;;2.70;2.30;;;;;;;;;;10541428;28;20028;-83
2021/07/18 08:57:11;;;;;;;2.53;2.03;;;;;;;;;;10541255;28;20032;-80
2021/07/18 09:02:12;;;;;;;2.83;2.40;;;;;;;;;;10540491;28;20040;-82
2021/07/18 09:07:17;;;;;;;2.88;1.90;;;;;;;;;;10541035;28;20032;-81
2021/07/18 09:12:19;;;;;;;2.58;1.90;;;;;;;;;;10540490;28;20036;-82
2021/07/18 09:17:21;;;;;;;2.10;1.90;;;;;;;;;;10539629;28;20542;-81
2021/07/18 09:22:23;;;;;;;2.75;1.80;;;;;;;;;;10557487;28;20509;-83
2021/07/18 09:27:26;;;;;;;3.75;2.00;;;;;;;;;;10538568;28;20142;-82
2021/07/18 09:32:29;;;;;;;2.95;1.95;;;;;;;;;;10537613;28;20028;-83
2021/07/18 09:37:31;;;;;;;2.92;2.08;;;;;;;;;;10540335;28;20127;-83
2021/07/18 09:43:07;;;;;;;2.17;1.92;;;;;;;;;;10538956;28;20059;-83
2021/07/18 09:48:40;;;;;;;3.22;2.42;;;;;;;;;;10470871;28;20025;-83
2021/07/18 09:54:14;;;;;;;2.78;2.20;;;;;;;;;;10470192;28;20060;-82
2021/07/18 09:59:16;;;;;;;3.70;2.42;;;;;;;;;;10469833;28;20029;-83
2021/07/18 10:04:39;;;;;;;3.30;2.25;;;;;;;;;;10540118;28;20105;-82
2021/07/18 10:09:40;;;;;;;2.95;2.40;;;;;;;;;;10538351;28;20047;-83
2021/07/18 10:14:42;;;;;;;4.60;2.88;;;;;;;;;;10529095;28;20044;-83
2021/07/18 10:19:44;;;;;;;3.05;2.20;;;;;;;;;;10530337;28;20406;-83
2021/07/18 10:24:47;;;;;;;4.57;2.30;;;;;;;;;;10543122;28;20036;-83
2021/07/18 10:29:52;;;;;;;2.97;2.00;;;;;;;;;;10533956;28;20052;-83
2021/07/18 10:34:55;;;;;;;4.57;3.10;;;;;;;;;;10552336;28;20107;-83
2021/07/18 10:39:56;;;;;;;3.35;2.40;;;;;;;;;;10553453;28;20038;-82
2021/07/18 10:45:33;;;;;;;4.32;2.70;;;;;;;;;;10551267;28;20035;-83
2021/07/18 10:50:44;;;;;;;3.10;2.20;;;;;;;;;;10545276;28;20123;-82
2021/07/18 10:55:46;;;;;;;4.43;2.40;;;;;;;;;;10545177;28;20036;-83
2021/07/18 11:00:49;;;;;;;4.45;2.45;;;;;;;;;;10557107;28;20044;-82
2021/07/18 11:05:50;;;;;;;3.53;2.58;;;;;;;;;;10552498;28;20034;-83
2021/07/18 11:10:52;;;;;;;3.50;2.38;;;;;;;;;;10557510;28;20056;-83
2021/07/18 11:16:02;;;;;;;2.80;2.33;;;;;;;;;;10544842;28;20028;-83
2021/07/18 11:21:03;;;;;;;4.60;2.03;;;;;;;;;;10553114;28;20032;-83
2021/07/18 11:26:04;;;;;;;5.07;2.30;;;;;;;;;;10536280;28;20031;-83
2021/07/18 11:31:14;;;;;;;3.58;2.03;;;;;;;;;;10535085;28;20035;-83
2021/07/18 11:36:20;;;;;;;4.38;2.05;;;;;;;;;;10582108;22;20086;-84
2021/07/18 11:41:22;;;;;;;3.05;1.88;;;;;;;;;;10551650;28;20040;-82
2021/07/18 11:46:24;;;;;;;6.40;2.08;;;;;;;;;;10552764;28;20128;-84
2021/07/18 11:51:25;;;;;;;3.30;2.20;;;;;;;;;;10549910;28;20051;-83
2021/07/18 11:56:40;;;;;;;3.85;2.00;;;;;;;;;;10550457;28;20086;-84
2021/07/18 12:01:42;;;;;;;4.15;2.35;;;;;;;;;;10551927;28;20082;-84
2021/07/18 12:06:44;;;;;;;6.18;3.45;;;;;;;;;;10578265;28;20024;-84
2021/07/18 12:11:48;;;;;;;4.45;2.30;;;;;;;;;;10584574;28;20032;-82
2021/07/18 12:16:54;;;;;;;4.65;2.10;;;;;;;;;;10585615;28;20024;-83
2021/07/18 12:21:56;;;;;;;5.03;2.42;;;;;;;;;;10550688;28;20182;-84
2021/07/18 12:27:00;;;;;;;3.15;1.90;;;;;;;;;;10548184;28;20035;-84
2021/07/18 12:32:02;;;;;;;3.25;2.13;;;;;;;;;;10548297;28;20036;-84
2021/07/18 12:37:05;;;;;;;3.33;1.88;;;;;;;;;;10547416;28;20105;-84
2021/07/18 12:42:12;;;;;;;4.43;2.25;;;;;;;;;;10546506;28;20090;-83
2021/07/18 12:47:17;;;;;;;3.88;2.22;;;;;;;;;;10547015;28;20035;-83
2021/07/18 12:52:20;;;;;;;3.38;2.00;;;;;;;;;;10547345;28;20032;-83
2021/07/18 12:57:32;;;;;;;3.15;2.00;;;;;;;;;;10553341;28;20036;-84
2021/07/18 13:02:33;;;;;;;3.13;2.35;;;;;;;;;;10552567;28;20036;-84
2021/07/18 13:07:34;;;;;;;4.47;2.60;;;;;;;;;;10549132;28;20032;-85
2021/07/18 13:12:35;;;;;;;3.05;2.50;;;;;;;;;;10551641;28;20101;-87
2021/07/18 13:17:48;;;;;;;2.88;2.50;;;;;;;;;;10551328;28;20043;-87
2021/07/18 13:22:49;;;;;;;4.05;2.65;;;;;;;;;;10550986;28;20044;-85
2021/07/18 13:27:51;;;;;;;4.43;2.70;;;;;;;;;;10549691;28;20078;-86
2021/07/18 13:32:53;;;;;;;3.20;2.65;;;;;;;;;;10551030;28;20082;-87
2021/07/18 13:37:59;;;;;;;3.08;2.78;;;;;;;;;;10548886;28;20039;-87
2021/07/18 13:43:14;;;;;;;3.83;2.95;;;;;;;;;;10547407;28;20038;-86
2021/07/18 13:48:17;;;;;;;4.05;3.00;;;;;;;;;;10546263;28;20105;-87
2021/07/18 13:53:20;;;;;;;3.45;3.15;;;;;;;;;;10546361;28;20036;-87
2021/07/18 13:58:21;;;;;;;3.83;3.30;;;;;;;;;;10544608;28;20520;-88
2021/07/18 14:03:23;;;;;;;6.65;3.03;;;;;;;;;;10546118;28;20458;-87
2021/07/18 14:08:24;;;;;;;5.10;3.20;;;;;;;;;;10546167;28;20123;-87
2021/07/18 14:13:25;;;;;;;4.50;3.45;;;;;;;;;;10544146;28;20039;-84
2021/07/18 14:18:26;;;;;;;4.30;3.53;;;;;;;;;;10547518;28;20470;-84
2021/07/18 14:23:27;;;;;;;3.65;3.35;;;;;;;;;;10549249;28;20397;-84
2021/07/18 14:28:28;;;;;;;3.67;3.30;;;;;;;;;;10546956;28;20032;-84
2021/07/18 14:33:29;;;;;;;4.35;3.63;;;;;;;;;;10545852;28;20498;-83
2021/07/18 14:38:31;;;;;;;4.20;3.53;;;;;;;;;;10544352;28;20051;-84
2021/07/18 14:43:34;;;;;;;4.00;3.60;;;;;;;;;;10511715;28;20040;-87
2021/07/18 14:48:35;;;;;;;4.57;3.72;;;;;;;;;;10528238;28;20482;-84
2021/07/18 14:53:38;;;;;;;4.10;3.65;;;;;;;;;;10527367;28;20076;-85
2021/07/18 14:58:42;;;;;;;4.65;3.72;;;;;;;;;;10544171;28;20039;-85
2021/07/18 15:03:48;;;;;;;4.30;3.90;;;;;;;;;;10552308;28;20028;-83
2021/07/18 15:08:49;;;;;;;5.32;3.72;;;;;;;;;;10586220;28;20102;-83
2021/07/18 15:13:50;;;;;;;5.57;3.60;;;;;;;;;;10587919;28;20043;-83
2021/07/18 15:18:51;;;;;;;3.75;3.45;;;;;;;;;;10578282;28;20167;-84
2021/07/18 15:23:52;;;;;;;4.63;3.60;;;;;;;;;;10554558;28;20036;-84
2021/07/18 15:28:54;;;;;;;5.40;3.60;;;;;;;;;;10554190;28;20036;-84
2021/07/18 15:33:55;;;;;;;4.70;4.20;;;;;;;;;;10553169;28;20032;-83
2021/07/18 15:38:56;;;;;;;4.30;3.90;;;;;;;;;;10550795;28;20043;-84
2021/07/18 15:43:58;;;;;;;5.28;3.72;;;;;;;;;;10552698;28;20523;-84
2021/07/18 15:49:08;;;;;;;4.00;3.60;;;;;;;;;;10551394;28;20032;-83
2021/07/18 15:54:09;;;;;;;4.53;3.58;;;;;;;;;;10581234;28;20117;-83
2021/07/18 15:59:10;;;;;;;4.07;3.63;;;;;;;;;;10593305;28;20101;-82
2021/07/18 16:04:11;;;;;;;4.03;3.65;;;;;;;;;;10592882;28;20058;-84
2021/07/18 16:09:12;;;;;;;4.43;3.65;;;;;;;;;;10592344;28;20564;-84
2021/07/18 16:14:13;;;;;;;4.43;3.90;;;;;;;;;;10591022;28;20097;-85
2021/07/18 16:19:14;;;;;;;4.85;3.75;;;;;;;;;;10588514;28;20543;-85
2021/07/18 16:24:15;;;;;;;5.18;4.10;;;;;;;;;;10589918;28;20036;-85
2021/07/18 16:29:16;;;;;;;4.97;4.07;;;;;;;;;;10591126;28;20043;-85
2021/07/18 16:34:17;;;;;;;3.95;3.55;;;;;;;;;;10590787;28;20035;-83
2021/07/18 16:39:19;;;;;;;4.30;3.90;;;;;;;;;;10591269;28;20119;-86
2021/07/18 16:44:20;;;;;;;4.40;4.00;;;;;;;;;;10597460;28;20062;-84
2021/07/18 16:49:24;;;;;;;4.30;3.90;;;;;;;;;;10596927;28;20374;-86
2021/07/18 16:54:25;;;;;;;4.38;3.70;;;;;;;;;;10576866;28;20028;-85
2021/07/18 16:59:26;;;;;;;4.10;3.53;;;;;;;;;;10599041;28;20109;-86
2021/07/18 17:04:27;;;;;;;5.90;3.53;;;;;;;;;;10594575;28;20136;-87
2021/07/18 17:09:30;;;;;;;4.68;3.25;;;;;;;;;;10592805;28;20042;-86
2021/07/18 17:14:31;;;;;;;4.70;3.70;;;;;;;;;;10592494;28;20409;-86
2021/07/18 17:25:31;;;;;;;3.85;3.50;;;;;;;;;;10611937;28;20032;-86
2021/07/18 17:30:33;;;;;;;4.03;3.63;;;;;;;;;;10590824;28;20036;-83
2021/07/18 17:36:06;;;;;;;3.60;3.30;;;;;;;;;;10627942;22;20407;-84
2021/07/18 17:41:34;;;;;;;4.05;3.30;;;;;;;;;;10551700;28;20040;-87
2021/07/18 17:46:35;;;;;;;4.55;3.15;;;;;;;;;;10556188;28;20069;-87
2021/07/18 17:51:36;;;;;;;3.53;3.22;;;;;;;;;;10530126;28;20032;-88
2021/07/18 17:56:38;;;;;;;4.55;3.40;;;;;;;;;;10530912;28;20523;-87
2021/07/18 18:01:39;;;;;;;3.83;3.10;;;;;;;;;;10530162;28;20032;-87
2021/07/18 18:06:40;;;;;;;6.45;3.25;;;;;;;;;;10528979;28;20032;-87
2021/07/18 18:11:42;;;;;;;3.72;3.10;;;;;;;;;;10530392;28;20039;-87
2021/07/18 18:16:44;;;;;;;4.38;3.25;;;;;;;;;;10532788;28;20067;-87
2021/07/18 18:21:45;;;;;;;4.32;2.90;;;;;;;;;;10535756;28;20035;-87
2021/07/18 18:26:47;;;;;;;3.80;2.53;;;;;;;;;;10537311;28;20401;-86
2021/07/18 18:31:48;;;;;;;3.22;2.80;;;;;;;;;;10558403;28;20054;-86
2021/07/18 18:36:50;;;;;;;4.25;2.85;;;;;;;;;;10537015;28;20109;-87
2021/07/18 18:41:53;;;;;;;3.08;2.25;;;;;;;;;;10535241;28;20086;-87
2021/07/18 18:46:54;;;;;;;4.07;2.10;;;;;;;;;;10543806;28;20085;-87
2021/07/18 18:51:56;;;;;;;3.00;1.77;;;;;;;;;;10560881;28;20028;-87
2021/07/18 18:56:57;;;;;;;3.95;2.17;;;;;;;;;;10542264;28;20059;-87
2021/07/18 19:01:58;;;;;;;3.60;2.78;;;;;;;;;;10559629;28;20028;-87
2021/07/18 19:07:00;;;;;;;3.47;1.98;;;;;;;;;;10537131;28;20075;-87
2021/07/18 19:12:00;;;;;;;3.47;2.20;;;;;;;;;;10535831;28;20042;-88
2021/07/18 19:17:01;;;;;;;3.20;2.13;;;;;;;;;;10535426;28;20032;-87
2021/07/18 19:22:03;;;;;;;3.13;2.17;;;;;;;;;;10534561;28;20064;-87
2021/07/18 19:27:04;;;;;;;3.15;2.30;;;;;;;;;;10540691;28;20032;-87
2021/07/18 19:32:05;;;;;;;3.25;2.20;;;;;;;;;;10536465;28;20028;-87
2021/07/18 19:37:07;;;;;;;3.67;2.30;;;;;;;;;;10537542;28;20054;-87
2021/07/18 19:42:08;;;;;;;2.60;2.20;;;;;;;;;;10535917;28;20051;-87
2021/07/18 19:47:10;;;;;;;2.97;2.10;;;;;;;;;;10536133;28;20371;-87
2021/07/18 19:52:14;;;;;;;3.88;2.13;;;;;;;;;;10536025;28;20032;-87
2021/07/18 19:57:15;;;;;;;2.47;2.10;;;;;;;;;;10536903;28;20032;-87
2021/07/18 20:02:16;;;;;;;2.97;2.10;;;;;;;;;;10535904;28;20058;-87
2021/07/18 20:07:17;;;;;;;2.78;2.10;;;;;;;;;;10535420;28;20071;-87
2021/07/18 20:12:18;;;;;;;2.58;2.13;;;;;;;;;;10533239;28;20081;-87
2021/07/18 20:17:19;;;;;;;5.43;3.50;;;;;;;;;;10551309;28;20486;-87
